createdAt,value
2018-06-12T00:00:39.253Z,974.8
2018-06-12T00:01:40.662Z,974.8
2018-06-12T00:02:42.005Z,974.8
2018-06-12T00:03:43.612Z,974.8
2018-06-12T00:04:44.979Z,974.8
2018-06-12T00:05:47.377Z,974.8
2018-06-12T00:06:48.722Z,974.8
2018-06-12T00:07:50.221Z,974.9
2018-06-12T00:08:51.664Z,974.9
2018-06-12T00:09:54.774Z,974.9
2018-06-12T00:10:57.233Z,974.9
2018-06-12T00:11:59.103Z,974.9
2018-06-12T00:13:01.047Z,974.9
2018-06-12T00:14:03.582Z,974.9
2018-06-12T00:15:04.937Z,974.9
2018-06-12T00:16:09.319Z,974.9
2018-06-12T00:17:11.053Z,975
2018-06-12T00:18:12.408Z,974.9
2018-06-12T00:19:13.899Z,974.7
2018-06-12T00:20:15.296Z,974.9
2018-06-12T00:21:19.277Z,974.9
2018-06-12T00:22:21.319Z,974.9
2018-06-12T00:23:22.659Z,974.8
2018-06-12T00:24:28.727Z,974.8
2018-06-12T00:25:30.065Z,974.9
2018-06-12T00:26:44.280Z,974.9
2018-06-12T00:27:45.754Z,974.9
2018-06-12T00:28:47.160Z,974.9
2018-06-12T00:29:48.591Z,974.9
2018-06-12T00:30:50.033Z,974.9
2018-06-12T00:31:51.549Z,974.9
2018-06-12T00:32:53.063Z,974.9
2018-06-12T00:33:54.578Z,974.9
2018-06-12T00:34:56.381Z,974.9
2018-06-12T00:35:57.872Z,975
2018-06-12T00:36:59.341Z,975
2018-06-12T00:38:00.897Z,975
2018-06-12T00:39:02.493Z,975
2018-06-12T00:40:04.277Z,974.9
2018-06-12T00:41:05.670Z,974.8
2018-06-12T00:42:08.221Z,975
2018-06-12T00:43:09.960Z,975
2018-06-12T00:44:12.103Z,975
2018-06-12T00:45:13.634Z,975
2018-06-12T00:46:19.108Z,974.8
2018-06-12T00:47:20.684Z,975
2018-06-12T00:48:22.382Z,975
2018-06-12T00:49:23.874Z,975
2018-06-12T00:50:25.343Z,975
2018-06-12T00:51:26.852Z,975
2018-06-12T00:52:28.457Z,975.1
2018-06-12T00:53:34.100Z,975.1
2018-06-12T00:54:36.027Z,975
2018-06-12T00:55:37.841Z,975.1
2018-06-12T00:56:39.472Z,975
2018-06-12T00:57:44.059Z,975
2018-06-12T00:58:45.895Z,974.9
2018-06-12T00:59:48.370Z,975
2018-06-12T01:00:49.877Z,975
2018-06-12T01:01:51.536Z,975
2018-06-12T01:02:52.989Z,975
2018-06-12T01:03:54.989Z,975.1
2018-06-12T01:04:56.746Z,975.1
2018-06-12T01:05:59.743Z,975.1
2018-06-12T01:07:01.628Z,975.1
2018-06-12T01:08:03.156Z,975
2018-06-12T01:09:04.759Z,975.1
2018-06-12T01:10:06.217Z,975.1
2018-06-12T01:11:07.621Z,975
2018-06-12T01:12:11.464Z,975.1
2018-06-12T01:13:13.109Z,975.1
2018-06-12T01:14:17.594Z,975
2018-06-12T01:15:19.062Z,975
2018-06-12T01:16:20.774Z,975
2018-06-12T01:17:22.353Z,975.1
2018-06-12T01:18:24.051Z,975.1
2018-06-12T01:19:25.633Z,975
2018-06-12T01:20:27.194Z,974.7
2018-06-12T01:21:35.622Z,975
2018-06-12T01:22:38.662Z,975
2018-06-12T01:23:40.215Z,975
2018-06-12T01:24:41.772Z,975
2018-06-12T01:25:44.104Z,975
2018-06-12T01:26:45.612Z,975
2018-06-12T01:27:47.181Z,975
2018-06-12T01:28:48.833Z,975
2018-06-12T01:29:50.480Z,975
2018-06-12T01:30:52.185Z,975
2018-06-12T01:31:56.457Z,974.9
2018-06-12T01:32:58.192Z,975
2018-06-12T01:33:59.677Z,975
2018-06-12T01:35:01.685Z,975
2018-06-12T01:36:03.125Z,975
2018-06-12T01:37:04.663Z,975
2018-06-12T01:38:07.206Z,975
2018-06-12T01:39:08.743Z,975
2018-06-12T01:40:10.068Z,975
2018-06-12T01:41:11.785Z,975
2018-06-12T01:42:13.868Z,975
2018-06-12T01:43:18.025Z,975.1
2018-06-12T01:44:21.172Z,975.1
2018-06-12T01:45:22.588Z,975.1
2018-06-12T01:46:24.265Z,975.1
2018-06-12T01:47:25.650Z,975.1
2018-06-12T01:48:26.997Z,975
2018-06-12T01:49:31.566Z,975.1
2018-06-12T01:50:32.899Z,975.1
2018-06-12T01:51:34.256Z,975
2018-06-12T01:52:36.209Z,975.1
2018-06-12T01:53:37.518Z,975
2018-06-12T01:54:38.821Z,975
2018-06-12T01:55:42.208Z,975
2018-06-12T01:56:43.681Z,975
2018-06-12T01:57:45.096Z,975.2
2018-06-12T01:58:46.470Z,975.2
2018-06-12T01:59:47.892Z,975.1
2018-06-12T02:00:52.666Z,975.1
2018-06-12T02:01:54.031Z,975.2
2018-06-12T02:02:58.395Z,975.1
2018-06-12T02:04:01.878Z,975.1
2018-06-12T02:05:03.199Z,975.2
2018-06-12T02:06:04.618Z,975.2
2018-06-12T02:07:06.533Z,975.2
2018-06-12T02:08:07.836Z,975.2
2018-06-12T02:09:35.461Z,975.2
2018-06-12T02:10:37.369Z,975.3
2018-06-12T02:15:19.984Z,975.3
2018-06-12T02:16:21.743Z,975.4
2018-06-12T02:17:23.043Z,975.4
2018-06-12T02:18:24.358Z,975.3
2018-06-12T02:19:27.460Z,975.3
2018-06-12T02:20:32.269Z,975.3
2018-06-12T02:21:33.577Z,975.4
2018-06-12T02:22:34.888Z,975.3
2018-06-12T02:23:36.401Z,975.4
2018-06-12T02:24:37.732Z,975.3
2018-06-12T02:25:39.069Z,975.4
2018-06-12T02:26:41.769Z,975.4
2018-06-12T02:27:43.032Z,975.3
2018-06-12T02:28:44.356Z,975.3
2018-06-12T02:29:45.841Z,975.4
2018-06-12T02:30:49.977Z,975.4
2018-06-12T02:31:51.280Z,975.4
2018-06-12T02:32:52.599Z,975.4
2018-06-12T02:33:53.883Z,975.4
2018-06-12T02:34:55.314Z,975.3
2018-06-12T02:35:56.844Z,975.4
2018-06-12T02:36:58.312Z,975.3
2018-06-12T02:37:59.617Z,975.3
2018-06-12T02:39:01.159Z,975.3
2018-06-12T02:40:02.526Z,975.5
2018-06-12T02:41:03.862Z,975.4
2018-06-12T02:42:05.198Z,975.4
2018-06-12T02:43:06.559Z,975.4
2018-06-12T02:44:08.000Z,975.3
2018-06-12T02:45:09.296Z,975.3
2018-06-12T02:46:10.692Z,975.4
2018-06-12T02:47:12.052Z,975.4
2018-06-12T02:48:13.424Z,975.4
2018-06-12T02:49:14.760Z,975.4
2018-06-12T02:50:16.089Z,975.4
2018-06-12T02:51:19.227Z,975.4
2018-06-12T02:52:20.654Z,975.4
2018-06-12T02:53:23.185Z,975.4
2018-06-12T02:54:25.361Z,975.5
2018-06-12T02:55:26.666Z,975.3
2018-06-12T02:56:28.010Z,975.4
2018-06-12T02:57:29.280Z,975.5
2018-06-12T02:58:30.596Z,975.5
2018-06-12T02:59:31.934Z,975.5
2018-06-12T03:00:33.381Z,975.3
2018-06-12T03:01:34.715Z,975.5
2018-06-12T03:02:36.505Z,975.5
2018-06-12T03:03:41.363Z,975.5
2018-06-12T03:04:42.753Z,975.5
2018-06-12T03:05:44.110Z,975.5
2018-06-12T03:06:47.564Z,975.5
2018-06-12T03:07:48.918Z,975.6
2018-06-12T03:08:50.271Z,975.6
2018-06-12T03:09:51.576Z,975.6
2018-06-12T03:10:52.893Z,975.6
2018-06-12T03:11:54.200Z,975.6
2018-06-12T03:12:55.670Z,975.7
2018-06-12T03:13:57.107Z,975.6
2018-06-12T03:14:59.828Z,975.6
2018-06-12T03:16:01.244Z,975.6
2018-06-12T03:17:05.688Z,975.6
2018-06-12T03:18:07.036Z,975.6
2018-06-12T03:19:08.540Z,975.6
2018-06-12T03:20:09.869Z,975.6
2018-06-12T03:21:12.222Z,975.7
2018-06-12T03:22:13.591Z,975.7
2018-06-12T03:23:17.141Z,975.7
2018-06-12T03:24:18.466Z,975.6
2018-06-12T03:25:19.747Z,975.7
2018-06-12T03:26:21.167Z,975.6
2018-06-12T03:27:22.555Z,975.7
2018-06-12T03:28:23.849Z,975.6
2018-06-12T03:29:25.236Z,975.6
2018-06-12T03:30:26.569Z,975.6
2018-06-12T03:31:28.002Z,975.6
2018-06-12T03:32:29.328Z,975.6
2018-06-12T03:33:32.768Z,975.6
2018-06-12T03:34:35.055Z,975.6
2018-06-12T03:35:36.753Z,975.6
2018-06-12T03:36:38.117Z,975.6
2018-06-12T03:37:40.615Z,975.6
2018-06-12T03:38:41.897Z,975.5
2018-06-12T03:39:43.206Z,975.6
2018-06-12T03:40:44.507Z,975.7
2018-06-12T03:41:45.906Z,975.6
2018-06-12T03:42:47.318Z,975.6
2018-06-12T03:43:48.570Z,975.7
2018-06-12T03:44:49.887Z,975.6
2018-06-12T03:45:51.658Z,975.7
2018-06-12T03:46:53.002Z,975.7
2018-06-12T03:47:54.380Z,975.7
2018-06-12T03:48:55.888Z,975.7
2018-06-12T03:49:57.260Z,975.7
2018-06-12T03:50:58.593Z,975.7
2018-06-12T03:51:59.921Z,975.5
2018-06-12T03:53:01.511Z,975.6
2018-06-12T03:54:02.800Z,975.6
2018-06-12T03:55:04.106Z,975.6
2018-06-12T03:56:05.540Z,975.6
2018-06-12T03:57:06.913Z,975.6
2018-06-12T03:58:08.247Z,975.6
2018-06-12T03:59:09.612Z,975.6
2018-06-12T04:00:10.946Z,975.6
2018-06-12T04:01:12.248Z,975.7
2018-06-12T04:02:13.757Z,975.7
2018-06-12T04:03:15.141Z,975.6
2018-06-12T04:04:16.510Z,975.6
2018-06-12T04:05:17.905Z,975.7
2018-06-12T04:06:19.249Z,975.8
2018-06-12T04:07:20.560Z,975.7
2018-06-12T04:08:22.174Z,975.7
2018-06-12T04:09:23.544Z,975.8
2018-06-12T04:10:24.788Z,975.7
2018-06-12T04:11:26.055Z,975.8
2018-06-12T04:12:28.597Z,975.7
2018-06-12T04:13:30.189Z,975.7
2018-06-12T04:14:31.554Z,975.6
2018-06-12T04:15:32.861Z,975.7
2018-06-12T04:16:35.000Z,975.7
2018-06-12T04:17:36.336Z,975.7
2018-06-12T04:18:37.719Z,975.7
2018-06-12T04:19:39.315Z,975.7
2018-06-12T04:20:40.686Z,975.7
2018-06-12T04:21:42.184Z,975.7
2018-06-12T04:22:43.534Z,975.8
2018-06-12T04:23:44.943Z,975.8
2018-06-12T04:24:46.706Z,975.8
2018-06-12T04:25:48.463Z,975.8
2018-06-12T04:26:49.947Z,975.8
2018-06-12T04:27:51.329Z,975.8
2018-06-12T04:28:52.714Z,975.9
2018-06-12T04:29:54.330Z,975.9
2018-06-12T04:30:55.695Z,975.9
2018-06-12T04:31:57.070Z,975.6
2018-06-12T04:32:58.400Z,975.8
2018-06-12T04:33:59.880Z,975.8
2018-06-12T04:35:01.213Z,975.8
2018-06-12T04:36:02.648Z,975.8
2018-06-12T04:37:04.239Z,975.8
2018-06-12T04:38:05.735Z,975.8
2018-06-12T04:39:07.215Z,975.8
2018-06-12T04:40:08.624Z,975.9
2018-06-12T04:41:11.432Z,975.8
2018-06-12T04:42:12.748Z,975.8
2018-06-12T04:43:14.064Z,975.8
2018-06-12T04:44:15.452Z,975.9
2018-06-12T04:45:16.881Z,975.9
2018-06-12T04:46:20.194Z,975.7
2018-06-12T04:47:21.691Z,975.9
2018-06-12T04:48:23.257Z,975.8
2018-06-12T04:49:24.657Z,975.9
2018-06-12T04:50:26.012Z,975.9
2018-06-12T04:51:27.370Z,975.9
2018-06-12T04:52:28.935Z,975.9
2018-06-12T04:53:30.308Z,975.9
2018-06-12T04:54:31.965Z,975.9
2018-06-12T04:55:33.357Z,975.9
2018-06-12T04:56:34.665Z,975.9
2018-06-12T04:57:36.676Z,975.9
2018-06-12T04:58:38.048Z,975.8
2018-06-12T04:59:40.622Z,975.9
2018-06-12T05:00:42.013Z,975.9
2018-06-12T05:01:43.596Z,976
2018-06-12T05:02:44.905Z,976
2018-06-12T05:03:47.498Z,976
2018-06-12T05:04:48.927Z,976
2018-06-12T05:05:50.282Z,976
2018-06-12T05:06:53.307Z,976
2018-06-12T05:07:56.050Z,975.9
2018-06-12T05:08:58.434Z,975.8
2018-06-12T05:09:59.991Z,975.8
2018-06-12T05:11:01.402Z,975.8
2018-06-12T05:12:03.772Z,975.8
2018-06-12T05:13:05.316Z,975.8
2018-06-12T05:14:06.871Z,975.8
2018-06-12T05:15:08.329Z,975.8
2018-06-12T05:16:09.658Z,975.8
2018-06-12T05:17:11.047Z,975.8
2018-06-12T05:18:13.116Z,975.8
2018-06-12T05:20:15.360Z,975.9
2018-06-12T05:21:17.500Z,975.8
2018-06-12T05:22:18.714Z,975.9
2018-06-12T05:23:19.916Z,975.9
2018-06-12T05:24:21.116Z,975.9
2018-06-12T05:25:22.337Z,975.9
2018-06-12T05:26:23.549Z,975.9
2018-06-12T05:27:24.798Z,975.8
2018-06-12T05:28:25.986Z,975.9
2018-06-12T05:29:27.171Z,975.9
2018-06-12T05:30:28.398Z,975.9
2018-06-12T05:31:29.664Z,975.8
2018-06-12T05:32:30.856Z,975.9
2018-06-12T05:33:32.029Z,976
2018-06-12T05:34:33.232Z,975.9
2018-06-12T05:35:34.466Z,975.9
2018-06-12T05:36:35.629Z,975.9
2018-06-12T05:37:36.790Z,975.9
2018-06-12T05:38:38.030Z,975.9
2018-06-12T05:39:39.161Z,975.9
2018-06-12T05:40:40.401Z,976
2018-06-12T05:41:41.573Z,975.9
2018-06-12T05:42:42.833Z,975.9
2018-06-12T05:43:44.050Z,975.9
2018-06-12T05:44:45.223Z,975.9
2018-06-12T05:45:46.400Z,975.9
2018-06-12T05:46:47.729Z,975.9
2018-06-12T05:47:48.961Z,976
2018-06-12T05:48:50.253Z,976
2018-06-12T05:49:51.447Z,976
2018-06-12T05:50:52.862Z,976
2018-06-12T05:51:54.017Z,975.9
2018-06-12T05:52:57.941Z,976
2018-06-12T05:53:59.105Z,975.9
2018-06-12T05:55:00.261Z,976
2018-06-12T05:56:01.508Z,975.9
2018-06-12T05:57:02.682Z,975.9
2018-06-12T05:58:03.867Z,975.9
2018-06-12T05:59:05.150Z,975.9
2018-06-12T06:00:06.591Z,976
2018-06-12T06:01:07.939Z,976
2018-06-12T06:02:09.357Z,976
2018-06-12T06:03:10.791Z,976.1
2018-06-12T06:04:12.057Z,976
2018-06-12T06:05:13.285Z,976.1
2018-06-12T06:06:14.564Z,976.1
2018-06-12T06:07:15.754Z,976
2018-06-12T06:08:16.992Z,976
2018-06-12T06:09:18.332Z,976.1
2018-06-12T06:10:19.751Z,976
2018-06-12T06:11:21.012Z,976
2018-06-12T06:12:23.110Z,975.9
2018-06-12T06:13:24.310Z,976.1
2018-06-12T06:14:25.526Z,976.1
2018-06-12T06:15:26.738Z,976.2
2018-06-12T06:16:28.187Z,976.2
2018-06-12T06:17:29.703Z,976.2
2018-06-12T06:18:30.956Z,976.3
2018-06-12T06:19:32.147Z,976.3
2018-06-12T06:20:33.425Z,976.2
2018-06-12T06:21:34.879Z,976.1
2018-06-12T06:22:36.112Z,976.2
2018-06-12T06:23:37.343Z,976.1
2018-06-12T06:24:38.829Z,976.2
2018-06-12T06:25:40.012Z,976.1
2018-06-12T06:26:41.306Z,976.1
2018-06-12T06:27:42.602Z,976.1
2018-06-12T06:28:43.941Z,976.1
2018-06-12T06:29:45.122Z,976.1
2018-06-12T06:30:46.328Z,976.1
2018-06-12T06:31:47.717Z,976
2018-06-12T06:32:51.239Z,976.1
2018-06-12T06:33:52.508Z,976.1
2018-06-12T06:34:53.739Z,976.1
2018-06-12T06:35:54.940Z,976.1
2018-06-12T06:36:56.427Z,976.1
2018-06-12T06:37:57.739Z,976.1
2018-06-12T06:38:59.273Z,976
2018-06-12T06:40:03.841Z,976
2018-06-12T06:41:05.045Z,976
2018-06-12T06:42:06.707Z,976
2018-06-12T06:43:08.159Z,976
2018-06-12T06:44:10.329Z,975.8
2018-06-12T06:45:11.576Z,976
2018-06-12T06:46:12.743Z,975.9
2018-06-12T06:47:14.097Z,976.1
2018-06-12T06:48:15.316Z,975.9
2018-06-12T06:49:16.602Z,976.2
2018-06-12T06:50:18.902Z,976
2018-06-12T06:51:21.217Z,976
2018-06-12T06:52:22.721Z,976.2
2018-06-12T06:53:23.977Z,976.2
2018-06-12T06:54:25.200Z,976.2
2018-06-12T06:55:26.765Z,976.2
2018-06-12T06:56:28.082Z,976.3
2018-06-12T06:57:30.734Z,976.2
2018-06-12T06:58:32.073Z,976.2
2018-06-12T06:59:33.256Z,976
2018-06-12T07:00:34.412Z,976.2
2018-06-12T07:01:35.626Z,976
2018-06-12T07:02:42.007Z,976.2
2018-06-12T07:03:43.323Z,976.2
2018-06-12T07:04:44.478Z,976.2
2018-06-12T07:05:45.628Z,976.1
2018-06-12T07:06:46.754Z,976.2
2018-06-12T07:07:47.968Z,976
2018-06-12T07:08:49.203Z,976.1
2018-06-12T07:09:50.367Z,976.2
2018-06-12T07:10:51.529Z,976.2
2018-06-12T07:11:52.644Z,976.2
2018-06-12T07:12:53.875Z,976.2
2018-06-12T07:13:55.042Z,976.1
2018-06-12T07:14:56.248Z,976.1
2018-06-12T07:15:57.391Z,976.2
2018-06-12T07:16:58.591Z,976.2
2018-06-12T07:17:59.794Z,976.2
2018-06-12T07:19:00.967Z,976.1
2018-06-12T07:20:02.252Z,976.2
2018-06-12T07:21:03.458Z,976.1
2018-06-12T07:22:04.607Z,976.3
2018-06-12T07:23:05.996Z,976.2
2018-06-12T07:24:07.185Z,976.2
2018-06-12T07:25:08.435Z,976.2
2018-06-12T07:26:09.642Z,976.2
2018-06-12T07:27:10.789Z,976.2
2018-06-12T07:28:12.062Z,976.2
2018-06-12T07:29:13.221Z,976.1
2018-06-12T07:30:15.368Z,976.1
2018-06-12T07:31:16.525Z,976.2
2018-06-12T07:32:17.751Z,976.3
2018-06-12T07:33:18.997Z,976.3
2018-06-12T07:34:20.194Z,976.3
2018-06-12T07:35:21.330Z,976.4
2018-06-12T07:36:22.473Z,976.1
2018-06-12T07:37:23.603Z,976.2
2018-06-12T07:38:24.803Z,976.1
2018-06-12T07:39:25.961Z,976.1
2018-06-12T07:40:27.129Z,976.2
2018-06-12T07:41:28.353Z,976.2
2018-06-12T07:42:29.522Z,976
2018-06-12T07:43:30.766Z,976.2
2018-06-12T07:44:31.903Z,976.2
2018-06-12T07:45:33.108Z,976.1
2018-06-12T07:46:34.268Z,976.2
2018-06-12T07:47:35.444Z,976.2
2018-06-12T07:48:36.675Z,976.1
2018-06-12T07:49:38.102Z,976
2018-06-12T07:50:39.264Z,976.1
2018-06-12T07:51:40.453Z,976.2
2018-06-12T07:52:41.632Z,976.2
2018-06-12T07:53:43.154Z,976.2
2018-06-12T07:54:44.390Z,976.2
2018-06-12T07:55:45.580Z,976.2
2018-06-12T07:56:46.750Z,976.1
2018-06-12T07:57:47.884Z,976.2
2018-06-12T07:58:49.071Z,976.1
2018-06-12T07:59:50.221Z,976.1
2018-06-12T08:00:51.446Z,976.2
2018-06-12T08:01:52.564Z,976.1
2018-06-12T08:02:53.727Z,976.2
2018-06-12T08:03:54.924Z,976.2
2018-06-12T08:04:56.078Z,976.2
2018-06-12T08:05:57.256Z,976.2
2018-06-12T08:06:58.653Z,976.2
2018-06-12T08:07:59.833Z,976.2
2018-06-12T08:09:01.171Z,976.3
2018-06-12T08:10:02.345Z,976.1
2018-06-12T08:11:03.498Z,976.2
2018-06-12T08:12:04.671Z,976
2018-06-12T08:13:05.928Z,976.1
2018-06-12T08:14:07.209Z,976.2
2018-06-12T08:15:08.480Z,976
2018-06-12T08:16:09.673Z,976.1
2018-06-12T08:17:10.867Z,976.1
2018-06-12T08:18:12.101Z,976.1
2018-06-12T08:19:13.386Z,976.2
2018-06-12T08:20:14.608Z,976.1
2018-06-12T08:21:15.791Z,976.2
2018-06-12T08:22:16.964Z,976.1
2018-06-12T08:23:18.191Z,976.1
2018-06-12T08:24:19.464Z,976.1
2018-06-12T08:25:20.649Z,976.2
2018-06-12T08:26:22.643Z,976
2018-06-12T08:27:23.909Z,976.2
2018-06-12T08:28:25.099Z,976.1
2018-06-12T08:29:26.293Z,976.2
2018-06-12T08:30:27.601Z,976.2
2018-06-12T08:31:28.707Z,976.2
2018-06-12T08:32:29.861Z,976.2
2018-06-12T08:33:31.064Z,976.1
2018-06-12T08:34:32.301Z,976.1
2018-06-12T08:35:33.449Z,976.2
2018-06-12T08:36:34.668Z,976.2
2018-06-12T08:37:36.191Z,976.1
2018-06-12T08:38:37.363Z,976.1
2018-06-12T08:39:38.673Z,976.2
2018-06-12T08:40:39.845Z,976.1
2018-06-12T08:41:41.059Z,976.1
2018-06-12T08:42:42.287Z,976.1
2018-06-12T08:43:43.507Z,976.1
2018-06-12T08:44:48.641Z,976.1
2018-06-12T08:45:49.902Z,976.1
2018-06-12T08:46:51.454Z,976
2018-06-12T08:47:52.953Z,976.1
2018-06-12T08:48:54.464Z,976.1
2018-06-12T08:49:55.801Z,976.1
2018-06-12T08:50:57.416Z,976.1
2018-06-12T08:51:59.121Z,975.9
2018-06-12T08:53:01.012Z,976
2018-06-12T08:54:02.293Z,976
2018-06-12T08:55:03.584Z,975.9
2018-06-12T08:56:04.945Z,975.9
2018-06-12T08:57:06.283Z,975.9
2018-06-12T08:58:07.616Z,975.8
2018-06-12T08:59:08.853Z,976.1
2018-06-12T09:00:10.108Z,976.1
2018-06-12T09:01:11.262Z,976
2018-06-12T09:02:12.403Z,976.1
2018-06-12T09:03:13.540Z,976.1
2018-06-12T09:04:14.747Z,976.1
2018-06-12T09:05:15.948Z,976.1
2018-06-12T09:06:17.127Z,976.1
2018-06-12T09:07:18.288Z,976.1
2018-06-12T09:08:19.495Z,976.1
2018-06-12T09:09:20.750Z,976.1
2018-06-12T09:10:23.011Z,976
2018-06-12T09:11:24.148Z,976.1
2018-06-12T09:12:25.643Z,976.1
2018-06-12T09:13:26.823Z,976.1
2018-06-12T09:14:28.020Z,976.1
2018-06-12T09:15:29.399Z,976.1
2018-06-12T09:16:30.551Z,976.1
2018-06-12T09:17:31.740Z,976.1
2018-06-12T09:18:32.927Z,976.1
2018-06-12T09:19:34.159Z,976
2018-06-12T09:20:35.608Z,976
2018-06-12T09:21:44.524Z,975.9
2018-06-12T09:22:45.853Z,976.1
2018-06-12T09:23:47.304Z,976.1
2018-06-12T09:24:48.637Z,976.1
2018-06-12T09:25:50.198Z,975.8
2018-06-12T09:26:51.386Z,976.2
2018-06-12T09:27:52.654Z,976.1
2018-06-12T09:28:53.893Z,976
2018-06-12T09:29:55.188Z,976.2
2018-06-12T09:30:56.392Z,976.2
2018-06-12T09:32:00.706Z,976
2018-06-12T09:33:01.913Z,976.2
2018-06-12T09:34:03.126Z,976.1
2018-06-12T09:35:04.327Z,976.2
2018-06-12T09:36:05.511Z,976.2
2018-06-12T09:37:06.769Z,976.1
2018-06-12T09:38:09.971Z,976.1
2018-06-12T09:39:11.279Z,976.2
2018-06-12T09:40:12.484Z,976.2
2018-06-12T09:41:13.758Z,976.2
2018-06-12T09:42:14.953Z,976.2
2018-06-12T09:43:16.196Z,976.1
2018-06-12T09:44:17.411Z,976.2
2018-06-12T09:45:18.628Z,976.3
2018-06-12T09:46:27.317Z,976.2
2018-06-12T09:47:28.544Z,976.2
2018-06-12T09:48:29.729Z,976.2
2018-06-12T09:49:30.912Z,976.2
2018-06-12T09:50:32.113Z,976.2
2018-06-12T09:51:33.313Z,976.2
2018-06-12T09:52:34.481Z,976.2
2018-06-12T09:53:35.677Z,976.3
2018-06-12T09:54:37.119Z,976.2
2018-06-12T09:55:38.317Z,976.2
2018-06-12T09:56:39.840Z,976.3
2018-06-12T09:57:41.038Z,976.1
2018-06-12T09:58:42.196Z,976.3
2018-06-12T09:59:43.414Z,976.2
2018-06-12T10:00:44.672Z,976.3
2018-06-12T10:01:46.050Z,976.3
2018-06-12T10:02:47.382Z,976.2
2018-06-12T10:03:50.493Z,976.2
2018-06-12T10:04:52.502Z,976.2
2018-06-12T10:05:53.750Z,976.2
2018-06-12T10:06:55.013Z,976.2
2018-06-12T10:07:58.232Z,976.2
2018-06-12T10:08:59.403Z,976.2
2018-06-12T10:10:00.721Z,976.1
2018-06-12T10:11:02.026Z,976.3
2018-06-12T10:12:03.346Z,976.3
2018-06-12T10:13:04.551Z,976.2
2018-06-12T10:14:05.757Z,976.2
2018-06-12T10:15:06.962Z,976.3
2018-06-12T10:16:08.108Z,976.3
2018-06-12T10:17:16.098Z,976.2
2018-06-12T10:18:17.306Z,976.2
2018-06-12T10:19:18.635Z,976.3
2018-06-12T10:20:19.838Z,976.3
2018-06-12T10:21:21.098Z,976.2
2018-06-12T10:22:22.299Z,976.2
2018-06-12T10:23:23.498Z,976.2
2018-06-12T10:24:24.672Z,976
2018-06-12T10:25:25.799Z,976.2
2018-06-12T10:26:27.030Z,976.1
2018-06-12T10:27:28.520Z,976.2
2018-06-12T10:28:29.808Z,976.2
2018-06-12T10:29:31.051Z,976.2
2018-06-12T10:30:35.236Z,976
2018-06-12T10:31:36.416Z,976.2
2018-06-12T10:32:37.664Z,976.2
2018-06-12T10:33:38.892Z,976.2
2018-06-12T10:34:40.121Z,976.2
2018-06-12T10:35:41.291Z,976.2
2018-06-12T10:36:42.499Z,976.2
2018-06-12T10:37:43.695Z,976.1
2018-06-12T10:38:44.836Z,976.1
2018-06-12T10:39:46.044Z,976.3
2018-06-12T10:40:47.202Z,976.3
2018-06-12T10:41:48.466Z,976.1
2018-06-12T10:42:49.827Z,976.2
2018-06-12T10:43:51.062Z,976.1
2018-06-12T10:44:52.250Z,976.2
2018-06-12T10:45:53.457Z,976.2
2018-06-12T10:46:54.664Z,976.2
2018-06-12T10:47:55.920Z,976.2
2018-06-12T10:48:57.473Z,976.1
2018-06-12T10:49:58.797Z,976.1
2018-06-12T10:50:59.948Z,976.2
2018-06-12T10:52:01.138Z,976.2
2018-06-12T10:53:02.388Z,976.2
2018-06-12T10:54:03.858Z,976.1
2018-06-12T10:55:05.023Z,976.1
2018-06-12T10:56:06.201Z,976.2
2018-06-12T10:57:07.391Z,976.2
2018-06-12T10:58:08.910Z,976.1
2018-06-12T10:59:10.128Z,976.2
2018-06-12T11:00:11.291Z,976.2
2018-06-12T11:01:12.489Z,976.2
2018-06-12T11:02:13.746Z,976.2
2018-06-12T11:03:15.189Z,976.2
2018-06-12T11:04:16.398Z,976.2
2018-06-12T11:05:17.550Z,976.2
2018-06-12T11:06:18.799Z,976.2
2018-06-12T11:07:19.997Z,976.1
2018-06-12T11:08:21.379Z,976.2
2018-06-12T11:09:22.626Z,976.2
2018-06-12T11:10:23.864Z,976.2
2018-06-12T11:11:25.035Z,976.3
2018-06-12T11:12:26.205Z,976.2
2018-06-12T11:13:27.448Z,976.2
2018-06-12T11:14:28.702Z,976.1
2018-06-12T11:15:32.554Z,976
2018-06-12T11:16:33.762Z,976.3
2018-06-12T11:17:39.249Z,976.1
2018-06-12T11:18:40.473Z,976.3
2018-06-12T11:19:41.681Z,976.3
2018-06-12T11:20:42.916Z,976.3
2018-06-12T11:21:44.199Z,976.3
2018-06-12T11:22:45.425Z,976.3
2018-06-12T11:23:46.681Z,976.4
2018-06-12T11:24:47.924Z,976.3
2018-06-12T11:25:49.141Z,976.3
2018-06-12T11:26:50.311Z,976.3
2018-06-12T11:27:51.486Z,976.3
2018-06-12T11:28:52.668Z,976.3
2018-06-12T11:29:54.810Z,976.4
2018-06-12T11:30:56.001Z,976.4
2018-06-12T11:31:57.172Z,976.4
2018-06-12T11:32:58.424Z,976.4
2018-06-12T11:33:59.716Z,976.3
2018-06-12T11:35:00.957Z,976.3
2018-06-12T11:36:02.137Z,976.3
2018-06-12T11:37:03.303Z,976.3
2018-06-12T11:38:04.469Z,976.3
2018-06-12T11:39:05.709Z,976.3
2018-06-12T11:40:06.934Z,976.4
2018-06-12T11:41:08.148Z,976.3
2018-06-12T11:42:09.414Z,976.3
2018-06-12T11:43:10.954Z,976.3
2018-06-12T11:44:12.231Z,976.3
2018-06-12T11:45:13.363Z,976.3
2018-06-12T11:46:14.700Z,976.2
2018-06-12T11:47:16.002Z,976.3
2018-06-12T11:48:17.251Z,976.2
2018-06-12T11:49:18.611Z,976.3
2018-06-12T11:50:19.831Z,976.2
2018-06-12T11:51:21.036Z,976.3
2018-06-12T11:52:22.229Z,976.2
2018-06-12T11:53:23.375Z,976.2
2018-06-12T11:54:24.753Z,976.1
2018-06-12T11:55:25.880Z,976.2
2018-06-12T11:56:27.119Z,976.2
2018-06-12T11:57:28.373Z,976.2
2018-06-12T11:58:29.628Z,976.1
2018-06-12T11:59:30.838Z,976.1
2018-06-12T12:00:34.606Z,976.1
2018-06-12T12:01:35.805Z,976.2
2018-06-12T12:02:37.025Z,976.1
2018-06-12T12:03:38.263Z,976.2
2018-06-12T12:04:39.567Z,976.2
2018-06-12T12:05:40.732Z,976.2
2018-06-12T12:06:41.893Z,976.2
2018-06-12T12:07:45.206Z,976
2018-06-12T12:08:46.381Z,976.2
2018-06-12T12:09:47.574Z,976.2
2018-06-12T12:10:48.788Z,976
2018-06-12T12:11:50.184Z,976.2
2018-06-12T12:13:07.601Z,976.2
2018-06-12T12:14:10.135Z,976.2
2018-06-12T12:15:13.257Z,975.9
2018-06-12T12:16:14.699Z,976.2
2018-06-12T12:17:16.549Z,976.2
2018-06-12T12:18:19.709Z,976.2
2018-06-12T12:19:21.317Z,976.2
2018-06-12T12:20:25.771Z,976.2
2018-06-12T12:21:27.686Z,976.1
2018-06-12T12:22:29.384Z,976.1
2018-06-12T12:23:31.547Z,976.1
2018-06-12T12:24:33.936Z,976
2018-06-12T12:25:35.429Z,976.1
2018-06-12T12:26:38.376Z,975.9
2018-06-12T12:27:40.432Z,976
2018-06-12T12:28:41.666Z,975.8
2018-06-12T12:29:42.776Z,976.1
2018-06-12T12:30:44.274Z,976
2018-06-12T12:31:45.510Z,975.9
2018-06-12T12:32:46.812Z,975.9
2018-06-12T12:33:48.064Z,975.9
2018-06-12T12:34:49.278Z,976
2018-06-12T12:35:50.722Z,976
2018-06-12T12:36:51.985Z,975.9
2018-06-12T12:37:53.204Z,976
2018-06-12T12:38:54.557Z,975.9
2018-06-12T12:39:55.714Z,975.9
2018-06-12T12:40:56.941Z,975.8
2018-06-12T12:41:58.254Z,975.8
2018-06-12T12:42:59.683Z,975.9
2018-06-12T12:44:00.848Z,975.9
2018-06-12T12:45:02.169Z,975.9
2018-06-12T12:46:03.606Z,975.9
2018-06-12T12:47:05.092Z,975.9
2018-06-12T12:48:07.122Z,975.9
2018-06-12T12:49:08.477Z,975.9
2018-06-12T12:50:09.805Z,975.9
2018-06-12T12:51:11.083Z,975.9
2018-06-12T12:52:17.196Z,975.9
2018-06-12T12:53:18.408Z,975.9
2018-06-12T12:54:19.872Z,975.8
2018-06-12T12:55:21.080Z,975.9
2018-06-12T12:56:22.448Z,975.9
2018-06-12T12:57:23.789Z,975.8
2018-06-12T12:58:25.180Z,975.7
2018-06-12T12:59:26.333Z,975.7
2018-06-12T13:00:27.680Z,975.8
2018-06-12T13:01:29.987Z,975.8
2018-06-12T13:02:31.269Z,975.8
2018-06-12T13:03:32.577Z,975.8
2018-06-12T13:04:34.072Z,975.8
2018-06-12T13:05:35.386Z,975.8
2018-06-12T13:06:37.066Z,975.7
2018-06-12T13:07:38.242Z,975.9
2018-06-12T13:08:39.459Z,975.8
2018-06-12T13:09:40.656Z,975.8
2018-06-12T13:10:42.105Z,975.7
2018-06-12T13:11:43.526Z,975.8
2018-06-12T13:12:45.122Z,975.8
2018-06-12T13:13:46.393Z,975.8
2018-06-12T13:14:47.848Z,975.8
2018-06-12T13:15:49.058Z,975.8
2018-06-12T13:16:50.339Z,975.7
2018-06-12T13:17:53.566Z,975.7
2018-06-12T13:18:54.765Z,975.7
2018-06-12T13:19:56.269Z,975.6
2018-06-12T13:20:57.491Z,975.6
2018-06-12T13:21:59.338Z,975.5
2018-06-12T13:23:00.563Z,975.5
2018-06-12T13:24:02.021Z,975.6
2018-06-12T13:25:03.335Z,975.6
2018-06-12T13:26:04.576Z,975.6